sensor_id;sensor_type;location;lat;lon;timestamp;pressure;altitude;pressure_sealevel;temperature;humidity
78123;BME280;67376;44.802;10.332;2023-07-31T00:00:57;100636.09;;;29.06;45.11
78123;BME280;67376;44.802;10.332;2023-07-31T00:03:22;100636.38;;;29.05;44.90
78123;BME280;67376;44.802;10.332;2023-07-31T00:05:48;100634.75;;;29.04;45.60
78123;BME280;67376;44.802;10.332;2023-07-31T00:08:13;100643.50;;;29.06;45.10
78123;BME280;67376;44.802;10.332;2023-07-31T00:10:38;100649.31;;;29.04;45.74
78123;BME280;67376;44.802;10.332;2023-07-31T00:13:03;100644.31;;;29.06;45.07
78123;BME280;67376;44.802;10.332;2023-07-31T00:15:29;100641.88;;;29.05;45.33
78123;BME280;67376;44.802;10.332;2023-07-31T00:17:54;100647.91;;;29.07;45.29
78123;BME280;67376;44.802;10.332;2023-07-31T00:20:19;100646.25;;;29.06;45.31
78123;BME280;67376;44.802;10.332;2023-07-31T00:22:45;100647.91;;;29.07;45.01
78123;BME280;67376;44.802;10.332;2023-07-31T00:25:10;100649.53;;;29.08;46.16
78123;BME280;67376;44.802;10.332;2023-07-31T00:27:35;100649.00;;;29.06;45.73
78123;BME280;67376;44.802;10.332;2023-07-31T00:30:00;100652.28;;;29.08;45.36
78123;BME280;67376;44.802;10.332;2023-07-31T00:32:26;100647.91;;;29.07;45.14
78123;BME280;67376;44.802;10.332;2023-07-31T00:34:51;100656.66;;;29.09;45.33
78123;BME280;67376;44.802;10.332;2023-07-31T00:37:17;100658.59;;;29.08;44.96
78123;BME280;67376;44.802;10.332;2023-07-31T00:39:42;100660.53;;;29.08;46.18
78123;BME280;67376;44.802;10.332;2023-07-31T00:42:07;100666.84;;;29.08;44.97
78123;BME280;67376;44.802;10.332;2023-07-31T00:44:33;100662.47;;;29.07;45.24
78123;BME280;67376;44.802;10.332;2023-07-31T00:46:58;100671.53;;;29.08;45.64
78123;BME280;67376;44.802;10.332;2023-07-31T00:49:24;100675.09;;;29.08;46.05
78123;BME280;67376;44.802;10.332;2023-07-31T00:51:49;100676.22;;;29.07;45.38
78123;BME280;67376;44.802;10.332;2023-07-31T00:54:15;100674.28;;;29.08;45.65
78123;BME280;67376;44.802;10.332;2023-07-31T00:56:40;100677.03;;;29.08;45.61
78123;BME280;67376;44.802;10.332;2023-07-31T00:59:05;100682.22;;;29.09;45.24
78123;BME280;67376;44.802;10.332;2023-07-31T01:01:31;100688.84;;;29.08;45.70
78123;BME280;67376;44.802;10.332;2023-07-31T01:03:56;100691.59;;;29.08;45.62
78123;BME280;67376;44.802;10.332;2023-07-31T01:06:33;100689.13;;;29.07;45.78
78123;BME280;67376;44.802;10.332;2023-07-31T01:09:02;100691.06;;;29.06;45.69
78123;BME280;67376;44.802;10.332;2023-07-31T01:11:29;100683.63;;;29.07;46.15
78123;BME280;67376;44.802;10.332;2023-07-31T01:13:55;100689.13;;;29.07;45.10
78123;BME280;67376;44.802;10.332;2023-07-31T01:16:21;100680.88;;;29.07;45.89
78123;BME280;67376;44.802;10.332;2023-07-31T01:18:46;100684.44;;;29.07;45.83
78123;BME280;67376;44.802;10.332;2023-07-31T01:26:09;100688.03;;;29.08;46.29
78123;BME280;67376;44.802;10.332;2023-07-31T01:31:25;100677.31;;;29.06;45.14
78123;BME280;67376;44.802;10.332;2023-07-31T01:33:53;100682.00;;;29.06;44.97
78123;BME280;67376;44.802;10.332;2023-07-31T01:36:19;100682.81;;;29.06;45.76
78123;BME280;67376;44.802;10.332;2023-07-31T01:38:44;100679.25;;;29.06;45.61
78123;BME280;67376;44.802;10.332;2023-07-31T01:41:09;100677.31;;;29.06;44.92
78123;BME280;67376;44.802;10.332;2023-07-31T01:43:35;100675.38;;;29.07;45.87
78123;BME280;67376;44.802;10.332;2023-07-31T01:46:00;100666.63;;;29.05;45.38
78123;BME280;67376;44.802;10.332;2023-07-31T01:48:25;100668.25;;;29.06;45.51
78123;BME280;67376;44.802;10.332;2023-07-31T01:50:50;100663.88;;;29.05;45.25
78123;BME280;67376;44.802;10.332;2023-07-31T01:53:15;100654.81;;;29.04;45.58
78123;BME280;67376;44.802;10.332;2023-07-31T01:55:41;100671.59;;;29.03;46.12
78123;BME280;67376;44.802;10.332;2023-07-31T01:58:06;100660.31;;;29.04;45.63
78123;BME280;67376;44.802;10.332;2023-07-31T02:00:31;100660.88;;;29.01;45.70
78123;BME280;67376;44.802;10.332;2023-07-31T02:02:57;100656.22;;;29.02;45.49
78123;BME280;67376;44.802;10.332;2023-07-31T02:05:22;100661.72;;;29.02;45.85
78123;BME280;67376;44.802;10.332;2023-07-31T02:07:47;100660.31;;;29.04;45.21
78123;BME280;67376;44.802;10.332;2023-07-31T02:10:12;100661.13;;;29.05;45.49
78123;BME280;67376;44.802;10.332;2023-07-31T02:12:38;100668.56;;;29.04;45.28
78123;BME280;67376;44.802;10.332;2023-07-31T02:15:03;100665.81;;;29.04;45.33
78123;BME280;67376;44.802;10.332;2023-07-31T02:17:28;100666.91;;;29.03;46.13
78123;BME280;67376;44.802;10.332;2023-07-31T02:19:54;100673.22;;;29.04;45.73
78123;BME280;67376;44.802;10.332;2023-07-31T02:22:20;100673.22;;;29.04;45.46
78123;BME280;67376;44.802;10.332;2023-07-31T02:24:45;100670.78;;;29.02;45.42
78123;BME280;67376;44.802;10.332;2023-07-31T02:27:10;100664.16;;;29.03;46.10
78123;BME280;67376;44.802;10.332;2023-07-31T02:29:35;100671.81;;;29.06;45.33
78123;BME280;67376;44.802;10.332;2023-07-31T02:32:01;100669.38;;;29.05;46.24
78123;BME280;67376;44.802;10.332;2023-07-31T02:34:26;100662.22;;;29.04;45.91
78123;BME280;67376;44.802;10.332;2023-07-31T02:36:51;100660.31;;;29.04;45.47
78123;BME280;67376;44.802;10.332;2023-07-31T02:39:16;100663.06;;;29.04;45.83
78123;BME280;67376;44.802;10.332;2023-07-31T02:41:42;100667.72;;;29.04;45.18
78123;BME280;67376;44.802;10.332;2023-07-31T02:44:07;100652.34;;;29.03;46.23
78123;BME280;67376;44.802;10.332;2023-07-31T02:46:32;100661.41;;;29.03;45.33
78123;BME280;67376;44.802;10.332;2023-07-31T02:48:57;100654.81;;;29.04;45.74
78123;BME280;67376;44.802;10.332;2023-07-31T02:51:23;100659.78;;;29.02;46.19
78123;BME280;67376;44.802;10.332;2023-07-31T02:53:48;100669.97;;;29.02;45.89
78123;BME280;67376;44.802;10.332;2023-07-31T02:56:14;100668.03;;;29.02;46.33
78123;BME280;67376;44.802;10.332;2023-07-31T02:58:39;100667.72;;;29.04;45.44
78123;BME280;67376;44.802;10.332;2023-07-31T03:01:05;100671.81;;;29.06;45.96
78123;BME280;67376;44.802;10.332;2023-07-31T03:03:30;100672.94;;;29.05;46.20
78123;BME280;67376;44.802;10.332;2023-07-31T03:05:55;100671.81;;;29.06;45.87
78123;BME280;67376;44.802;10.332;2023-07-31T03:08:21;100679.53;;;29.04;45.80
78123;BME280;67376;44.802;10.332;2023-07-31T03:10:46;100673.22;;;29.04;45.83
78123;BME280;67376;44.802;10.332;2023-07-31T03:13:11;100676.50;;;29.06;45.85
78123;BME280;67376;44.802;10.332;2023-07-31T03:15:36;100683.41;;;29.03;46.23
78123;BME280;67376;44.802;10.332;2023-07-31T03:18:02;100680.66;;;29.03;45.82
78123;BME280;67376;44.802;10.332;2023-07-31T03:20:27;100687.50;;;29.06;45.79
78123;BME280;67376;44.802;10.332;2023-07-31T03:22:52;100680.38;;;29.05;45.81
78123;BME280;67376;44.802;10.332;2023-07-31T03:25:17;100676.78;;;29.04;45.09
78123;BME280;67376;44.802;10.332;2023-07-31T03:27:43;100684.75;;;29.06;45.80
78123;BME280;67376;44.802;10.332;2023-07-31T03:30:08;100676.78;;;29.04;46.31
78123;BME280;67376;44.802;10.332;2023-07-31T03:32:33;100677.91;;;29.03;46.05
78123;BME280;67376;44.802;10.332;2023-07-31T03:34:59;100679.53;;;29.04;45.88
78123;BME280;67376;44.802;10.332;2023-07-31T03:37:24;100677.91;;;29.03;45.94
78123;BME280;67376;44.802;10.332;2023-07-31T03:39:49;100676.28;;;29.02;45.70
78123;BME280;67376;44.802;10.332;2023-07-31T03:42:14;100676.56;;;29.01;46.02
78123;BME280;67376;44.802;10.332;2023-07-31T03:44:40;100673.81;;;29.01;45.53
78123;BME280;67376;44.802;10.332;2023-07-31T03:47:05;100669.97;;;29.02;46.01
78123;BME280;67376;44.802;10.332;2023-07-31T03:49:30;100672.47;;;28.98;45.42
78123;BME280;67376;44.802;10.332;2023-07-31T03:51:56;100670.84;;;28.97;46.06
78123;BME280;67376;44.802;10.332;2023-07-31T03:54:21;100680.97;;;29.02;45.51
78123;BME280;67376;44.802;10.332;2023-07-31T03:56:46;100675.47;;;29.02;46.26
78123;BME280;67376;44.802;10.332;2023-07-31T03:59:11;100690.31;;;29.01;46.08
78123;BME280;67376;44.802;10.332;2023-07-31T04:01:37;100690.84;;;29.03;45.44
78123;BME280;67376;44.802;10.332;2023-07-31T04:06:46;100689.50;;;29.00;45.43
78123;BME280;67376;44.802;10.332;2023-07-31T04:09:11;100690.84;;;29.03;45.51
78123;BME280;67376;44.802;10.332;2023-07-31T04:11:36;100694.41;;;29.03;45.45
78123;BME280;67376;44.802;10.332;2023-07-31T04:14:01;100686.16;;;29.03;46.49
78123;BME280;67376;44.802;10.332;2023-07-31T04:16:27;100686.16;;;29.03;45.39
78123;BME280;67376;44.802;10.332;2023-07-31T04:18:52;100687.56;;;29.01;45.30
78123;BME280;67376;44.802;10.332;2023-07-31T04:21:17;100695.50;;;29.02;46.03
78123;BME280;67376;44.802;10.332;2023-07-31T04:23:43;100692.78;;;29.02;45.46
78123;BME280;67376;44.802;10.332;2023-07-31T04:26:08;100698.25;;;29.02;45.51
78123;BME280;67376;44.802;10.332;2023-07-31T04:28:33;100695.50;;;29.02;46.13
78123;BME280;67376;44.802;10.332;2023-07-31T04:30:58;100699.09;;;29.03;45.25
78123;BME280;67376;44.802;10.332;2023-07-31T04:33:24;100697.97;;;29.04;46.20
78123;BME280;67376;44.802;10.332;2023-07-31T04:35:52;100698.78;;;29.04;46.32
78123;BME280;67376;44.802;10.332;2023-07-31T04:38:18;100700.72;;;29.04;45.90
78123;BME280;67376;44.802;10.332;2023-07-31T04:40:44;100701.84;;;29.03;45.41
78123;BME280;67376;44.802;10.332;2023-07-31T04:43:09;100698.56;;;29.01;45.98
78123;BME280;67376;44.802;10.332;2023-07-31T04:45:34;100706.81;;;29.01;45.57
78123;BME280;67376;44.802;10.332;2023-07-31T04:47:59;100697.75;;;29.00;45.63
78123;BME280;67376;44.802;10.332;2023-07-31T04:50:25;100701.31;;;29.01;45.96
78123;BME280;67376;44.802;10.332;2023-07-31T04:52:50;100699.97;;;28.98;45.82
78123;BME280;67376;44.802;10.332;2023-07-31T04:55:15;100698.03;;;28.99;45.26
78123;BME280;67376;44.802;10.332;2023-07-31T04:57:40;100697.22;;;28.98;46.20
78123;BME280;67376;44.802;10.332;2023-07-31T05:00:06;100688.44;;;28.96;45.64
78123;BME280;67376;44.802;10.332;2023-07-31T05:02:32;100695.59;;;28.97;46.08
78123;BME280;67376;44.802;10.332;2023-07-31T05:04:57;100701.91;;;28.98;45.87
78123;BME280;67376;44.802;10.332;2023-07-31T05:07:22;100712.59;;;28.99;46.17
78123;BME280;67376;44.802;10.332;2023-07-31T05:09:48;100712.00;;;29.02;45.43
78123;BME280;67376;44.802;10.332;2023-07-31T05:12:13;100717.00;;;29.00;45.58
78123;BME280;67376;44.802;10.332;2023-07-31T05:14:39;100710.97;;;28.98;46.03
78123;BME280;67376;44.802;10.332;2023-07-31T05:17:04;100706.00;;;29.00;46.03
78123;BME280;67376;44.802;10.332;2023-07-31T05:19:30;100705.47;;;28.98;45.68
78123;BME280;67376;44.802;10.332;2023-07-31T05:21:55;100712.91;;;28.98;45.68
78123;BME280;67376;44.802;10.332;2023-07-31T05:24:20;100711.25;;;28.97;45.70
78123;BME280;67376;44.802;10.332;2023-07-31T05:26:45;100709.31;;;28.97;45.43
78123;BME280;67376;44.802;10.332;2023-07-31T05:29:11;100716.47;;;28.98;45.41
78123;BME280;67376;44.802;10.332;2023-07-31T05:31:36;100717.81;;;29.01;45.53
78123;BME280;67376;44.802;10.332;2023-07-31T05:34:03;100714.81;;;28.97;46.01
78123;BME280;67376;44.802;10.332;2023-07-31T05:36:28;100723.38;;;28.96;45.49
78123;BME280;67376;44.802;10.332;2023-07-31T05:38:53;100721.44;;;28.96;45.65
78123;BME280;67376;44.802;10.332;2023-07-31T05:41:19;100724.19;;;28.96;45.51
78123;BME280;67376;44.802;10.332;2023-07-31T05:43:44;100720.31;;;28.97;45.51
78123;BME280;67376;44.802;10.332;2023-07-31T05:46:09;100725.81;;;28.97;46.22
78123;BME280;67376;44.802;10.332;2023-07-31T05:48:37;100723.38;;;28.96;46.21
78123;BME280;67376;44.802;10.332;2023-07-31T05:51:02;100729.97;;;28.95;45.69
78123;BME280;67376;44.802;10.332;2023-07-31T05:53:27;100723.38;;;28.96;45.91
78123;BME280;67376;44.802;10.332;2023-07-31T05:55:53;100731.63;;;28.96;45.74
78123;BME280;67376;44.802;10.332;2023-07-31T05:58:18;100742.91;;;28.94;45.79
78123;BME280;67376;44.802;10.332;2023-07-31T06:00:43;100736.59;;;28.93;46.23
78123;BME280;67376;44.802;10.332;2023-07-31T06:03:08;100734.13;;;28.92;45.72
78123;BME280;67376;44.802;10.332;2023-07-31T06:05:34;100742.09;;;28.93;46.55
78123;BME280;67376;44.802;10.332;2023-07-31T06:07:59;100742.38;;;28.92;45.78
78123;BME280;67376;44.802;10.332;2023-07-31T06:10:25;100741.25;;;28.93;46.32
78123;BME280;67376;44.802;10.332;2023-07-31T06:12:50;100744.31;;;28.91;46.15
78123;BME280;67376;44.802;10.332;2023-07-31T06:15:16;100749.00;;;28.91;45.74
78123;BME280;67376;44.802;10.332;2023-07-31T06:17:42;100754.19;;;28.92;45.63
78123;BME280;67376;44.802;10.332;2023-07-31T06:20:08;100750.63;;;28.92;46.01
78123;BME280;67376;44.802;10.332;2023-07-31T06:22:33;100754.19;;;28.92;45.96
78123;BME280;67376;44.802;10.332;2023-07-31T06:24:58;100756.13;;;28.92;46.24
78123;BME280;67376;44.802;10.332;2023-07-31T06:27:24;100757.22;;;28.91;45.59
78123;BME280;67376;44.802;10.332;2023-07-31T06:29:49;100757.22;;;28.91;45.62
78123;BME280;67376;44.802;10.332;2023-07-31T06:32:15;100750.63;;;28.92;45.86
78123;BME280;67376;44.802;10.332;2023-07-31T06:34:40;100753.06;;;28.93;46.29
78123;BME280;67376;44.802;10.332;2023-07-31T06:37:06;100756.94;;;28.92;45.81
78123;BME280;67376;44.802;10.332;2023-07-31T06:39:31;100758.06;;;28.91;46.56
78123;BME280;67376;44.802;10.332;2023-07-31T06:41:56;100758.88;;;28.92;46.32
78123;BME280;67376;44.802;10.332;2023-07-31T06:44:22;100765.47;;;28.91;46.24
78123;BME280;67376;44.802;10.332;2023-07-31T06:46:47;100764.66;;;28.90;45.67
78123;BME280;67376;44.802;10.332;2023-07-31T06:49:13;100756.72;;;28.89;46.49
78123;BME280;67376;44.802;10.332;2023-07-31T06:51:40;100764.38;;;28.92;45.80
78123;BME280;67376;44.802;10.332;2023-07-31T06:54:05;100772.63;;;28.92;45.85
78123;BME280;67376;44.802;10.332;2023-07-31T06:56:31;100774.53;;;28.91;45.82
78123;BME280;67376;44.802;10.332;2023-07-31T06:58:56;100766.28;;;28.91;45.68
78123;BME280;67376;44.802;10.332;2023-07-31T07:01:21;100765.47;;;28.91;46.08
78123;BME280;67376;44.802;10.332;2023-07-31T07:03:47;100764.66;;;28.90;46.34
78123;BME280;67376;44.802;10.332;2023-07-31T07:06:15;100773.72;;;28.91;45.92
78123;BME280;67376;44.802;10.332;2023-07-31T07:08:41;100772.63;;;28.92;45.86
78123;BME280;67376;44.802;10.332;2023-07-31T07:11:07;100773.72;;;28.91;46.08
78123;BME280;67376;44.802;10.332;2023-07-31T07:13:32;100782.78;;;28.91;46.64
78123;BME280;67376;44.802;10.332;2023-07-31T07:15:57;100782.78;;;28.91;45.85
78123;BME280;67376;44.802;10.332;2023-07-31T07:18:23;100786.34;;;28.92;46.49
78123;BME280;67376;44.802;10.332;2023-07-31T07:20:51;100793.19;;;28.95;46.25
78123;BME280;67376;44.802;10.332;2023-07-31T07:23:17;100790.75;;;28.93;46.99
78123;BME280;67376;44.802;10.332;2023-07-31T07:25:43;100795.72;;;28.91;45.95
78123;BME280;67376;44.802;10.332;2023-07-31T07:28:09;100810.00;;;28.93;46.28
78123;BME280;67376;44.802;10.332;2023-07-31T07:30:34;100793.50;;;28.93;45.99
78123;BME280;67376;44.802;10.332;2023-07-31T07:32:59;100781.69;;;28.92;46.32
78123;BME280;67376;44.802;10.332;2023-07-31T07:35:25;100794.59;;;28.92;46.30
78123;BME280;67376;44.802;10.332;2023-07-31T07:37:50;100786.66;;;28.90;45.86
78123;BME280;67376;44.802;10.332;2023-07-31T07:40:15;100782.78;;;28.91;45.63
78123;BME280;67376;44.802;10.332;2023-07-31T07:42:40;100781.16;;;28.90;46.43
78123;BME280;67376;44.802;10.332;2023-07-31T07:45:06;100773.72;;;28.91;46.06
78123;BME280;67376;44.802;10.332;2023-07-31T07:47:31;100779.47;;;28.95;46.91
78123;BME280;67376;44.802;10.332;2023-07-31T07:49:57;100780.28;;;28.95;46.18
78123;BME280;67376;44.802;10.332;2023-07-31T07:52:22;100779.75;;;28.93;45.91
78123;BME280;67376;44.802;10.332;2023-07-31T07:54:47;100771.50;;;28.93;45.97
78123;BME280;67376;44.802;10.332;2023-07-31T07:57:12;100781.69;;;28.92;46.45
78123;BME280;67376;44.802;10.332;2023-07-31T07:59:38;100769.88;;;28.92;46.25
78123;BME280;67376;44.802;10.332;2023-07-31T08:02:03;100772.84;;;28.96;45.85
78123;BME280;67376;44.802;10.332;2023-07-31T08:04:28;100773.66;;;28.96;46.83
78123;BME280;67376;44.802;10.332;2023-07-31T08:06:53;100773.97;;;28.95;45.96
78123;BME280;67376;44.802;10.332;2023-07-31T08:09:19;100769.56;;;28.93;45.99
78123;BME280;67376;44.802;10.332;2023-07-31T08:11:44;100771.22;;;28.95;46.54
78123;BME280;67376;44.802;10.332;2023-07-31T08:14:09;100768.47;;;28.95;46.31
78123;BME280;67376;44.802;10.332;2023-07-31T08:16:34;100779.47;;;28.95;45.83
78123;BME280;67376;44.802;10.332;2023-07-31T08:19:00;100783.56;;;28.97;46.58
78123;BME280;67376;44.802;10.332;2023-07-31T08:21:25;100784.38;;;28.98;45.69
78123;BME280;67376;44.802;10.332;2023-07-31T08:23:50;100773.66;;;28.96;46.45
78123;BME280;67376;44.802;10.332;2023-07-31T08:26:16;100771.50;;;28.93;46.17
78123;BME280;67376;44.802;10.332;2023-07-31T08:28:41;100773.13;;;28.94;46.09
78123;BME280;67376;44.802;10.332;2023-07-31T08:31:07;100762.16;;;28.94;46.07
78123;BME280;67376;44.802;10.332;2023-07-31T08:33:32;100770.38;;;28.94;45.91
78123;BME280;67376;44.802;10.332;2023-07-31T08:35:57;100764.38;;;28.92;46.77
78123;BME280;67376;44.802;10.332;2023-07-31T08:38:25;100760.50;;;28.93;46.39
78123;BME280;67376;44.802;10.332;2023-07-31T08:40:51;100765.41;;;28.96;47.14
78123;BME280;67376;44.802;10.332;2023-07-31T08:43:16;100767.34;;;28.96;46.52
78123;BME280;67376;44.802;10.332;2023-07-31T08:45:41;100765.72;;;28.95;45.83
78123;BME280;67376;44.802;10.332;2023-07-31T08:48:07;100763.25;;;28.93;46.57
78123;BME280;67376;44.802;10.332;2023-07-31T08:50:33;100759.69;;;28.92;47.22
78123;BME280;67376;44.802;10.332;2023-07-31T08:52:58;100750.31;;;28.93;46.04
78123;BME280;67376;44.802;10.332;2023-07-31T08:55:23;100755.81;;;28.93;46.51
78123;BME280;67376;44.802;10.332;2023-07-31T08:57:50;100755.00;;;28.93;45.84
78123;BME280;67376;44.802;10.332;2023-07-31T09:00:16;100756.94;;;28.92;46.14
78123;BME280;67376;44.802;10.332;2023-07-31T09:02:44;100748.16;;;28.90;46.88
78123;BME280;67376;44.802;10.332;2023-07-31T09:05:10;100750.63;;;28.92;46.10
78123;BME280;67376;44.802;10.332;2023-07-31T09:07:36;100745.94;;;28.92;45.96
78123;BME280;67376;44.802;10.332;2023-07-31T09:10:03;100745.94;;;28.92;46.71
78123;BME280;67376;44.802;10.332;2023-07-31T09:12:28;100751.44;;;28.92;46.05
78123;BME280;67376;44.802;10.332;2023-07-31T09:15:12;100749.50;;;28.93;46.86
78123;BME280;67376;44.802;10.332;2023-07-31T09:17:37;100747.59;;;28.93;46.14
78123;BME280;67376;44.802;10.332;2023-07-31T09:20:16;100747.59;;;28.93;46.52
78123;BME280;67376;44.802;10.332;2023-07-31T09:22:42;100745.66;;;28.94;46.83
78123;BME280;67376;44.802;10.332;2023-07-31T09:25:17;100744.84;;;28.93;46.21
78123;BME280;67376;44.802;10.332;2023-07-31T09:27:46;100743.72;;;28.95;46.36
78123;BME280;67376;44.802;10.332;2023-07-31T09:30:11;100749.22;;;28.95;46.60
78123;BME280;67376;44.802;10.332;2023-07-31T09:32:36;100746.75;;;28.93;46.50
78123;BME280;67376;44.802;10.332;2023-07-31T09:35:12;100744.53;;;28.95;46.73
78123;BME280;67376;44.802;10.332;2023-07-31T09:37:38;100744.84;;;28.93;45.93
78123;BME280;67376;44.802;10.332;2023-07-31T09:40:03;100743.19;;;28.92;46.77
78123;BME280;67376;44.802;10.332;2023-07-31T09:42:29;100737.69;;;28.92;46.01
78123;BME280;67376;44.802;10.332;2023-07-31T09:44:56;100740.44;;;28.92;46.45
78123;BME280;67376;44.802;10.332;2023-07-31T09:47:31;100742.09;;;28.93;46.28
78123;BME280;67376;44.802;10.332;2023-07-31T09:49:56;100736.59;;;28.93;46.38
78123;BME280;67376;44.802;10.332;2023-07-31T09:52:22;100744.53;;;28.95;46.27
78123;BME280;67376;44.802;10.332;2023-07-31T09:54:47;100740.97;;;28.95;46.20
78123;BME280;67376;44.802;10.332;2023-07-31T09:57:13;100737.41;;;28.94;46.88
78123;BME280;67376;44.802;10.332;2023-07-31T09:59:42;100737.41;;;28.94;46.67
78123;BME280;67376;44.802;10.332;2023-07-31T10:02:08;100735.47;;;28.95;46.31
78123;BME280;67376;44.802;10.332;2023-07-31T10:04:39;100741.25;;;28.93;46.14
78123;BME280;67376;44.802;10.332;2023-07-31T10:07:05;100729.16;;;28.94;46.10
78123;BME280;67376;44.802;10.332;2023-07-31T10:09:31;100732.72;;;28.95;46.17
78123;BME280;67376;44.802;10.332;2023-07-31T10:11:59;100730.78;;;28.95;46.83
78123;BME280;67376;44.802;10.332;2023-07-31T10:14:25;100732.97;;;28.98;46.38
78123;BME280;67376;44.802;10.332;2023-07-31T10:16:51;100724.72;;;28.98;46.67
78123;BME280;67376;44.802;10.332;2023-07-31T10:19:18;100724.72;;;28.98;46.90
78123;BME280;67376;44.802;10.332;2023-07-31T10:21:43;100728.28;;;28.99;46.00
78123;BME280;67376;44.802;10.332;2023-07-31T10:24:09;100731.84;;;28.99;45.92
78123;BME280;67376;44.802;10.332;2023-07-31T10:26:34;100725.22;;;29.00;45.97
78123;BME280;67376;44.802;10.332;2023-07-31T10:29:00;100727.97;;;29.00;46.28
78123;BME280;67376;44.802;10.332;2023-07-31T10:31:26;100717.28;;;28.99;46.34
78123;BME280;67376;44.802;10.332;2023-07-31T10:33:52;100714.00;;;28.97;46.99
78123;BME280;67376;44.802;10.332;2023-07-31T10:36:18;100715.94;;;28.96;46.30
78123;BME280;67376;44.802;10.332;2023-07-31T10:38:44;100708.81;;;28.95;46.36
78123;BME280;67376;44.802;10.332;2023-07-31T10:41:10;100699.16;;;28.98;46.35
78123;BME280;67376;44.802;10.332;2023-07-31T10:43:38;100705.47;;;28.98;46.40
78123;BME280;67376;44.802;10.332;2023-07-31T10:46:07;100715.34;;;28.99;46.71
78123;BME280;67376;44.802;10.332;2023-07-31T10:48:34;100703.25;;;29.00;46.61
78123;BME280;67376;44.802;10.332;2023-07-31T10:51:01;100697.75;;;29.00;46.35
78123;BME280;67376;44.802;10.332;2023-07-31T10:53:32;100698.25;;;29.02;46.30
78123;BME280;67376;44.802;10.332;2023-07-31T10:56:01;100696.94;;;29.00;46.77
78123;BME280;67376;44.802;10.332;2023-07-31T10:58:26;100697.75;;;29.00;46.24
78123;BME280;67376;44.802;10.332;2023-07-31T11:00:55;100694.41;;;29.03;46.16
78123;BME280;67376;44.802;10.332;2023-07-31T11:03:24;100695.50;;;29.02;46.16
78123;BME280;67376;44.802;10.332;2023-07-31T11:08:16;100698.50;;;29.06;46.10
78123;BME280;67376;44.802;10.332;2023-07-31T11:10:43;100698.19;;;29.07;45.83
78123;BME280;67376;44.802;10.332;2023-07-31T11:13:08;100695.75;;;29.06;46.64
78123;BME280;67376;44.802;10.332;2023-07-31T11:15:33;100699.59;;;29.05;46.25
78123;BME280;67376;44.802;10.332;2023-07-31T11:18:00;100683.13;;;29.05;46.69
78123;BME280;67376;44.802;10.332;2023-07-31T11:20:27;100693.28;;;29.04;46.68
78123;BME280;67376;44.802;10.332;2023-07-31T11:22:54;100682.00;;;29.06;45.89
78123;BME280;67376;44.802;10.332;2023-07-31T11:25:19;100683.63;;;29.07;45.92
78123;BME280;67376;44.802;10.332;2023-07-31T11:27:45;100672.13;;;29.05;45.87
78123;BME280;67376;44.802;10.332;2023-07-31T11:30:10;100664.97;;;29.04;46.21
78123;BME280;67376;44.802;10.332;2023-07-31T11:32:36;100669.38;;;29.05;47.11
78123;BME280;67376;44.802;10.332;2023-07-31T11:35:02;100668.25;;;29.06;45.87
78123;BME280;67376;44.802;10.332;2023-07-31T11:37:43;100658.38;;;29.05;45.92
78123;BME280;67376;44.802;10.332;2023-07-31T11:40:09;100655.31;;;29.06;46.68
78123;BME280;67376;44.802;10.332;2023-07-31T11:42:34;100658.06;;;29.06;46.20
78123;BME280;67376;44.802;10.332;2023-07-31T11:45:02;100656.97;;;29.07;46.51
78123;BME280;67376;44.802;10.332;2023-07-31T11:47:27;100655.31;;;29.06;45.88
78123;BME280;67376;44.802;10.332;2023-07-31T11:49:52;100645.97;;;29.07;46.83
78123;BME280;67376;44.802;10.332;2023-07-31T11:52:18;100639.66;;;29.07;46.75
78123;BME280;67376;44.802;10.332;2023-07-31T11:54:45;100650.63;;;29.07;46.56
78123;BME280;67376;44.802;10.332;2023-07-31T11:57:11;100642.09;;;29.08;46.16
78123;BME280;67376;44.802;10.332;2023-07-31T11:59:37;100639.66;;;29.07;46.35
78123;BME280;67376;44.802;10.332;2023-07-31T12:02:03;100641.28;;;29.08;46.76
78123;BME280;67376;44.802;10.332;2023-07-31T12:04:29;100634.97;;;29.07;47.01
78123;BME280;67376;44.802;10.332;2023-07-31T12:06:54;100636.59;;;29.08;46.66
78123;BME280;67376;44.802;10.332;2023-07-31T12:09:20;100631.91;;;29.09;46.50
78123;BME280;67376;44.802;10.332;2023-07-31T12:11:45;100615.41;;;29.09;46.99
78123;BME280;67376;44.802;10.332;2023-07-31T12:14:20;100623.97;;;29.07;45.99
78123;BME280;67376;44.802;10.332;2023-07-31T12:16:47;100619.59;;;29.06;46.17
78123;BME280;67376;44.802;10.332;2023-07-31T12:19:12;100609.09;;;29.08;46.67
78123;BME280;67376;44.802;10.332;2023-07-31T12:21:38;100612.38;;;29.10;47.09
78123;BME280;67376;44.802;10.332;2023-07-31T12:24:03;100612.38;;;29.10;46.89
78123;BME280;67376;44.802;10.332;2023-07-31T12:26:33;100606.88;;;29.10;46.67
78123;BME280;67376;44.802;10.332;2023-07-31T12:28:59;100604.13;;;29.10;46.35
78123;BME280;67376;44.802;10.332;2023-07-31T12:31:25;100593.94;;;29.11;46.76
78123;BME280;67376;44.802;10.332;2023-07-31T12:33:52;100597.81;;;29.10;46.48
78123;BME280;67376;44.802;10.332;2023-07-31T12:36:20;100586.81;;;29.10;45.99
78123;BME280;67376;44.802;10.332;2023-07-31T12:38:46;100585.69;;;29.11;47.07
78123;BME280;67376;44.802;10.332;2023-07-31T12:41:11;100573.59;;;29.12;45.93
78123;BME280;67376;44.802;10.332;2023-07-31T12:43:38;100576.34;;;29.12;46.31
78123;BME280;67376;44.802;10.332;2023-07-31T12:46:04;100567.28;;;29.11;46.50